Terminal Aerodrome Forecast
Issued by NWS Topeka, KS

Home | Current Version | Previous Version | Text Only | Print | Product List | Glossary On
Versions: 1 2 3 4 5 6 7 8 9 10 11 12 13 14
000
FTUS43 KTOP 262300
TAFTOP
TAF
KTOP 262320Z 2700/2724 32016G25KT P6SM OVC025
     FM270300 32009KT P6SM OVC025
     FM270700 01003KT P6SM SCT025 OVC060
     FM271700 14008KT P6SM SCT060=

USA.gov is the U.S. government's official web portal to all federal, state and local government web resources and services.